Time;durP1;ratioP1;P1;durP2;ratioP2;P2;SDS_P1;SDS_P2;PMS_P1;PMS_P2;Temp;Humidity;BMP_temperature;BMP_pressure;BME280_temperature;BME280_humidity;BME280_pressure;Samples;Min_cycle;Max_cycle;Signal;HPM_P1;HPM_P2
2022/04/08 00:01:46;;;;;;;16.33;10.73;;;6.20;99.90;;;;;;4143953;28;20075;-57
2022/04/08 00:03:47;;;;;;;22.13;11.77;;;6.20;99.90;;;;;;4154308;28;20107;-58
2022/04/08 00:05:48;;;;;;;17.33;10.97;;;6.20;99.90;;;;;;4160385;28;20424;-59
2022/04/08 00:07:49;;;;;;;21.70;11.40;;;6.10;99.90;;;;;;4158489;28;20037;-53
2022/04/08 00:09:50;;;;;;;19.47;11.60;;;6.10;99.90;;;;;;4160255;28;20111;-52
2022/04/08 00:11:51;;;;;;;21.90;12.10;;;6.00;99.90;;;;;;4159282;28;20037;-62
2022/04/08 00:13:54;;;;;;;24.30;12.33;;;6.00;99.90;;;;;;4157306;28;20546;-62
2022/04/08 00:15:55;;;;;;;20.80;11.53;;;5.90;99.90;;;;;;4142907;28;20022;-62
2022/04/08 00:17:57;;;;;;;18.23;11.00;;;5.80;99.90;;;;;;4144480;28;20092;-59
2022/04/08 00:19:58;;;;;;;19.17;11.00;;;5.80;99.90;;;;;;4143181;28;20547;-61
2022/04/08 00:22:00;;;;;;;20.47;10.73;;;5.80;99.90;;;;;;4143039;28;20045;-62
2022/04/08 00:24:01;;;;;;;18.57;10.47;;;5.70;99.90;;;;;;4142733;28;20544;-59
2022/04/08 00:26:03;;;;;;;17.03;9.97;;;5.70;99.90;;;;;;4143651;28;20069;-51
2022/04/08 00:28:04;;;;;;;16.93;11.07;;;5.70;99.90;;;;;;4144123;28;20042;-57
2022/04/08 00:30:06;;;;;;;18.60;10.53;;;5.70;99.90;;;;;;4143429;28;20030;-62
2022/04/08 00:32:07;;;;;;;19.20;10.60;;;5.70;99.90;;;;;;4159360;28;20091;-56
2022/04/08 00:34:08;;;;;;;21.13;10.70;;;5.60;99.90;;;;;;4158223;28;20099;-57
2022/04/08 00:36:10;;;;;;;20.73;10.37;;;5.60;99.90;;;;;;4159130;28;20072;-58
2022/04/08 00:38:11;;;;;;;20.67;11.13;;;5.60;99.90;;;;;;4142201;28;20640;-60
2022/04/08 00:40:12;;;;;;;17.70;10.77;;;5.50;99.90;;;;;;4143266;28;20275;-53
2022/04/08 00:42:13;;;;;;;21.43;10.33;;;5.50;99.90;;;;;;4141956;28;20034;-62
2022/04/08 00:44:15;;;;;;;15.40;10.17;;;5.50;99.90;;;;;;4143397;28;20057;-56
2022/04/08 00:46:16;;;;;;;22.43;11.40;;;5.50;99.90;;;;;;4142191;28;20050;-63
2022/04/08 00:48:17;;;;;;;20.90;10.53;;;5.40;99.90;;;;;;4142925;28;20288;-56
2022/04/08 00:50:22;;;;;;;18.70;10.03;;;5.40;99.90;;;;;;4142669;28;20030;-59
2022/04/08 00:52:23;;;;;;;13.13;8.87;;;5.40;99.90;;;;;;4143844;28;20038;-63
2022/04/08 00:54:24;;;;;;;16.00;9.50;;;5.30;99.90;;;;;;4142603;28;20357;-59
2022/04/08 00:56:29;;;;;;;20.53;9.53;;;5.30;99.90;;;;;;4141675;28;20830;-54
2022/04/08 00:58:31;;;;;;;14.60;8.33;;;5.20;99.90;;;;;;4142856;28;20054;-55
2022/04/08 01:00:34;;;;;;;17.97;8.80;;;5.20;99.90;;;;;;4142042;28;20088;-59
2022/04/08 01:02:37;;;;;;;15.50;8.17;;;5.10;99.90;;;;;;4142532;28;20034;-55
2022/04/08 01:04:38;;;;;;;14.73;9.03;;;5.00;99.90;;;;;;4140883;28;20664;-63
2022/04/08 01:06:43;;;;;;;17.27;9.73;;;5.00;99.90;;;;;;4141946;28;20580;-60
2022/04/08 01:08:44;;;;;;;15.73;9.73;;;5.00;99.90;;;;;;4140389;28;20299;-63
2022/04/08 01:10:48;;;;;;;18.67;9.83;;;4.90;99.90;;;;;;4141847;28;20329;-61
2022/04/08 01:12:50;;;;;;;18.93;10.43;;;4.90;99.90;;;;;;4140918;28;20267;-55
2022/04/08 01:14:58;;;;;;;17.67;10.60;;;4.80;99.90;;;;;;4157100;28;20320;-59
2022/04/08 01:17:00;;;;;;;15.67;8.60;;;4.70;99.90;;;;;;4157157;28;20271;-57
2022/04/08 01:19:01;;;;;;;15.33;8.70;;;4.80;99.90;;;;;;4158223;28;20271;-55
2022/04/08 01:21:06;;;;;;;19.07;8.93;;;4.70;99.90;;;;;;4154932;28;20341;-58
2022/04/08 01:23:08;;;;;;;16.80;8.57;;;4.70;99.90;;;;;;4158357;28;20271;-56
2022/04/08 01:25:11;;;;;;;20.87;9.67;;;4.60;99.90;;;;;;4157087;28;20286;-60
2022/04/08 01:27:13;;;;;;;18.40;9.20;;;4.50;99.90;;;;;;4157445;28;20294;-54
2022/04/08 01:29:15;;;;;;;13.30;8.33;;;4.50;99.90;;;;;;4156782;28;20308;-49
2022/04/08 01:31:16;;;;;;;14.77;8.53;;;4.50;99.90;;;;;;4154539;28;20671;-56
2022/04/08 01:33:17;;;;;;;12.30;8.43;;;4.60;99.90;;;;;;4141285;28;20365;-56
2022/04/08 01:35:18;;;;;;;15.77;7.63;;;4.60;99.90;;;;;;4140854;28;20307;-52
2022/04/08 01:37:20;;;;;;;15.33;9.37;;;4.60;99.90;;;;;;4141781;28;20659;-58
2022/04/08 01:39:21;;;;;;;13.90;8.87;;;4.60;99.90;;;;;;4140501;28;20275;-59
2022/04/08 01:41:22;;;;;;;14.47;8.37;;;4.60;99.90;;;;;;4141250;28;20275;-61
2022/04/08 01:43:23;;;;;;;14.70;8.40;;;4.70;99.90;;;;;;4140462;28;20770;-61
2022/04/08 01:45:24;;;;;;;16.27;8.90;;;4.70;99.90;;;;;;4141637;28;20341;-57
2022/04/08 01:47:25;;;;;;;14.70;9.13;;;4.70;99.90;;;;;;4140209;28;20263;-54
2022/04/08 01:49:26;;;;;;;13.33;8.40;;;4.70;99.90;;;;;;4141797;28;20329;-59
2022/04/08 01:51:27;;;;;;;16.17;9.27;;;4.70;99.90;;;;;;4141239;28;20283;-53
2022/04/08 01:53:29;;;;;;;16.77;9.37;;;4.80;99.90;;;;;;4142027;28;20337;-60
2022/04/08 01:55:30;;;;;;;15.37;8.53;;;4.80;99.90;;;;;;4140482;28;20271;-56
2022/04/08 01:57:31;;;;;;;16.93;9.73;;;4.80;99.90;;;;;;4141192;28;20267;-54
2022/04/08 01:59:32;;;;;;;18.40;9.57;;;4.80;99.90;;;;;;4140553;28;20375;-54
2022/04/08 02:01:33;;;;;;;16.83;9.80;;;4.80;99.90;;;;;;4139504;28;20802;-56
2022/04/08 02:03:34;;;;;;;15.60;8.97;;;4.80;99.90;;;;;;4102034;28;1123814;-60
2022/04/08 02:05:36;;;;;;;16.03;9.27;;;4.80;99.90;;;;;;4139586;28;20050;-55
2022/04/08 02:07:37;;;;;;;16.67;9.83;;;4.70;99.90;;;;;;4142194;28;20322;-55
2022/04/08 02:09:39;;;;;;;15.87;8.43;;;4.70;99.90;;;;;;4140829;28;20271;-59
2022/04/08 02:11:40;;;;;;;16.27;9.33;;;4.70;99.90;;;;;;4141973;28;20267;-55
2022/04/08 02:13:41;;;;;;;23.50;10.93;;;4.60;99.90;;;;;;4140852;28;20271;-53
2022/04/08 02:15:42;;;;;;;24.03;12.30;;;4.60;99.90;;;;;;4142176;28;20267;-59
2022/04/08 02:17:43;;;;;;;22.33;13.37;;;4.40;99.90;;;;;;4141080;28;20604;-55
2022/04/08 02:19:45;;;;;;;26.40;14.97;;;4.40;99.90;;;;;;4142830;28;20283;-55
2022/04/08 02:21:48;;;;;;;31.33;14.37;;;4.40;99.90;;;;;;4140437;28;20263;-55
2022/04/08 02:23:50;;;;;;;35.57;17.77;;;4.50;99.90;;;;;;4142152;28;20318;-56
2022/04/08 02:25:51;;;;;;;31.60;15.37;;;4.40;99.90;;;;;;4141309;28;20338;-57
2022/04/08 02:27:53;;;;;;;38.73;15.07;;;4.40;99.90;;;;;;4141197;28;20325;-55
2022/04/08 02:30:00;;;;;;;27.50;14.70;;;4.30;99.90;;;;;;4140754;28;21242;-54
2022/04/08 02:32:01;;;;;;;22.43;12.87;;;4.30;99.90;;;;;;4141522;28;20399;-54
2022/04/08 02:34:02;;;;;;;23.13;13.27;;;4.40;99.90;;;;;;4140701;28;20329;-58
2022/04/08 02:36:05;;;;;;;21.33;12.07;;;4.40;99.90;;;;;;4140935;28;20272;-56
2022/04/08 02:38:06;;;;;;;24.63;12.83;;;4.40;99.90;;;;;;4141216;28;20338;-64
2022/04/08 02:40:08;;;;;;;18.93;11.80;;;4.40;99.90;;;;;;4140206;28;20330;-57
2022/04/08 02:42:09;;;;;;;28.87;12.33;;;4.40;99.90;;;;;;4141406;28;20263;-54
2022/04/08 02:44:10;;;;;;;17.87;11.20;;;4.50;99.90;;;;;;4141380;28;20326;-56
2022/04/08 02:46:13;;;;;;;20.03;11.10;;;4.50;99.90;;;;;;4141384;28;20295;-57
2022/04/08 02:48:14;;;;;;;16.53;10.07;;;4.60;99.90;;;;;;4140341;28;20295;-56
2022/04/08 02:50:15;;;;;;;18.13;10.90;;;4.60;99.90;;;;;;4141232;28;20272;-57
2022/04/08 02:52:16;;;;;;;20.50;12.23;;;4.50;99.90;;;;;;4140160;28;20824;-56
2022/04/08 02:54:18;;;;;;;20.13;12.03;;;4.50;99.90;;;;;;4141563;28;20349;-56
2022/04/08 02:56:19;;;;;;;25.10;13.70;;;4.50;99.90;;;;;;4140194;28;20280;-51
2022/04/08 02:58:20;;;;;;;20.83;11.80;;;4.40;99.90;;;;;;4141951;28;20325;-56
2022/04/08 03:00:21;;;;;;;17.97;10.53;;;4.50;99.90;;;;;;4140149;28;20742;-56
2022/04/08 03:02:22;;;;;;;19.20;11.67;;;4.40;99.90;;;;;;4140936;28;20667;-58
2022/04/08 03:04:25;;;;;;;19.93;10.80;;;4.40;99.90;;;;;;4140409;28;20315;-63
2022/04/08 03:06:26;;;;;;;18.97;11.27;;;4.40;99.90;;;;;;4140604;28;20271;-57
2022/04/08 03:08:29;;;;;;;22.17;11.67;;;4.40;99.90;;;;;;4140789;28;20286;-60
2022/04/08 03:10:30;;;;;;;17.67;10.03;;;4.40;99.90;;;;;;4141113;28;20275;-55
2022/04/08 03:12:32;;;;;;;15.23;9.57;;;4.40;99.90;;;;;;4141251;28;20338;-56
2022/04/08 03:14:33;;;;;;;16.40;9.43;;;4.30;99.90;;;;;;4140248;28;20267;-55
2022/04/08 03:16:34;;;;;;;17.67;10.23;;;4.30;99.90;;;;;;4140487;28;20279;-58
2022/04/08 03:18:35;;;;;;;16.67;9.50;;;4.30;99.90;;;;;;4140523;28;20271;-57
2022/04/08 03:20:36;;;;;;;18.07;8.70;;;4.30;99.90;;;;;;4140984;28;20275;-58
2022/04/08 03:22:37;;;;;;;15.97;9.60;;;4.30;99.90;;;;;;4139955;28;20271;-53
2022/04/08 03:24:38;;;;;;;17.53;9.10;;;4.30;99.90;;;;;;4141297;28;20333;-54
2022/04/08 03:26:39;;;;;;;14.80;9.10;;;4.30;99.90;;;;;;4139607;28;20680;-58
2022/04/08 03:28:42;;;;;;;17.13;9.47;;;4.40;99.90;;;;;;4141937;28;20263;-57
2022/04/08 03:30:44;;;;;;;15.83;9.67;;;4.40;99.90;;;;;;4139571;28;20345;-59
2022/04/08 03:32:45;;;;;;;13.73;9.10;;;4.40;99.90;;;;;;4140485;28;20287;-52
2022/04/08 03:34:57;;;;;;;20.07;10.07;;;4.40;99.90;;;;;;4140390;28;20271;-57
2022/04/08 03:36:58;;;;;;;17.97;9.73;;;4.40;99.90;;;;;;4156410;28;20832;-54
2022/04/08 03:38:59;;;;;;;18.90;10.13;;;4.30;99.90;;;;;;4156915;28;20832;-55
2022/04/08 03:41:01;;;;;;;16.67;9.53;;;4.30;99.90;;;;;;4146367;28;20326;-56
2022/04/08 03:43:03;;;;;;;20.30;11.73;;;4.30;99.90;;;;;;4140366;28;20279;-59
2022/04/08 03:45:06;;;;;;;18.00;10.70;;;4.30;99.90;;;;;;4139039;28;20803;-59
2022/04/08 03:47:07;;;;;;;19.67;10.83;;;4.30;99.90;;;;;;4152313;28;20332;-57
2022/04/08 03:49:14;;;;;;;19.83;10.67;;;4.30;99.90;;;;;;4151444;28;20283;-55
2022/04/08 03:51:15;;;;;;;19.10;11.37;;;4.20;99.90;;;;;;4140445;28;20326;-56
2022/04/08 03:53:16;;;;;;;15.47;9.63;;;4.10;99.90;;;;;;4138793;28;20322;-53
2022/04/08 03:55:17;;;;;;;20.07;11.10;;;4.10;99.90;;;;;;4141419;28;20675;-62
2022/04/08 03:57:18;;;;;;;18.37;11.50;;;4.00;99.90;;;;;;4154877;28;20275;-56
2022/04/08 03:59:21;;;;;;;20.07;11.00;;;3.90;99.90;;;;;;4156736;28;20266;-55
2022/04/08 04:01:23;;;;;;;19.67;11.77;;;3.90;99.90;;;;;;4153964;28;20846;-57
2022/04/08 04:03:24;;;;;;;21.10;11.17;;;3.80;99.90;;;;;;4143064;28;20283;-58
2022/04/08 04:05:25;;;;;;;18.53;11.13;;;3.80;99.90;;;;;;4138567;28;20361;-62
2022/04/08 04:07:26;;;;;;;17.60;10.97;;;3.90;99.90;;;;;;4139841;28;20329;-57
2022/04/08 04:09:27;;;;;;;18.30;11.20;;;4.00;99.90;;;;;;4144886;28;20328;-59
2022/04/08 04:11:28;;;;;;;20.97;11.63;;;4.10;99.90;;;;;;4155407;28;20297;-61
2022/04/08 04:13:30;;;;;;;17.07;10.70;;;4.20;99.90;;;;;;4140942;28;20276;-57
2022/04/08 04:15:31;;;;;;;19.33;11.07;;;4.20;99.90;;;;;;4141640;28;20286;-55
2022/04/08 04:17:32;;;;;;;16.97;11.03;;;4.30;99.90;;;;;;4149130;28;20294;-54
2022/04/08 04:19:33;;;;;;;17.07;10.50;;;4.40;99.90;;;;;;4139728;28;20404;-55
2022/04/08 04:21:34;;;;;;;19.10;11.47;;;4.50;99.90;;;;;;4140364;28;20671;-59
2022/04/08 04:23:35;;;;;;;21.27;11.20;;;4.60;99.90;;;;;;4139823;28;20275;-54
2022/04/08 04:25:36;;;;;;;18.30;11.63;;;4.60;99.90;;;;;;4140171;28;20360;-57
2022/04/08 04:27:37;;;;;;;19.27;10.60;;;4.70;99.90;;;;;;4142981;28;20313;-59
2022/04/08 04:29:39;;;;;;;26.30;11.97;;;4.90;99.90;;;;;;4143377;28;20658;-60
2022/04/08 04:31:40;;;;;;;20.97;11.93;;;5.10;99.90;;;;;;4141675;28;20264;-57
2022/04/08 04:33:41;;;;;;;18.63;10.50;;;5.50;99.90;;;;;;4146145;28;20325;-58
2022/04/08 04:35:42;;;;;;;22.23;11.63;;;5.60;99.90;;;;;;4152268;28;21170;-58
2022/04/08 04:37:43;;;;;;;19.97;11.90;;;5.80;99.90;;;;;;4144775;28;20928;-55
2022/04/08 04:39:44;;;;;;;19.57;11.87;;;5.80;99.90;;;;;;4155664;28;20279;-56
2022/04/08 04:41:45;;;;;;;25.27;10.87;;;5.80;99.90;;;;;;4158767;28;20317;-58
2022/04/08 04:43:46;;;;;;;18.57;11.30;;;6.00;99.90;;;;;;4159049;28;20832;-56
2022/04/08 04:45:48;;;;;;;17.03;10.87;;;6.30;99.90;;;;;;4142009;28;20706;-57
2022/04/08 04:47:49;;;;;;;18.47;10.40;;;6.40;99.90;;;;;;4144874;28;20629;-56
2022/04/08 04:49:50;;;;;;;34.27;12.53;;;6.50;99.90;;;;;;4143786;28;20270;-59
2022/04/08 04:51:51;;;;;;;28.43;12.53;;;6.80;99.90;;;;;;4141852;28;20532;-57
2022/04/08 04:53:53;;;;;;;26.43;11.33;;;7.10;99.90;;;;;;4141388;28;20099;-59
2022/04/08 04:55:57;;;;;;;23.77;11.43;;;7.30;99.90;;;;;;4148182;28;20068;-60
2022/04/08 04:57:59;;;;;;;24.23;11.57;;;7.70;99.90;;;;;;4139430;28;20088;-57
2022/04/08 05:00:03;;;;;;;22.03;11.23;;;8.00;99.90;;;;;;4140408;28;20117;-57
2022/04/08 05:02:04;;;;;;;31.83;12.33;;;8.40;99.90;;;;;;4140095;28;20147;-58
2022/04/08 05:04:05;;;;;;;26.00;11.20;;;8.90;99.90;;;;;;4150767;28;20081;-54
2022/04/08 05:06:06;;;;;;;21.33;12.13;;;9.00;99.90;;;;;;4146593;28;20126;-60
2022/04/08 05:08:08;;;;;;;23.30;12.70;;;9.10;99.90;;;;;;4152784;28;20493;-59
2022/04/08 05:10:09;;;;;;;28.43;12.90;;;9.10;99.90;;;;;;4140107;28;20108;-61
2022/04/08 05:12:10;;;;;;;21.77;11.80;;;9.20;99.90;;;;;;4149551;28;20049;-55
2022/04/08 05:14:11;;;;;;;23.20;13.47;;;9.50;99.90;;;;;;4157099;28;20041;-57
2022/04/08 05:16:13;;;;;;;21.17;11.93;;;10.00;99.90;;;;;;4151351;28;20057;-62
2022/04/08 05:18:14;;;;;;;19.60;11.47;;;10.50;99.90;;;;;;4158287;28;20390;-58
2022/04/08 05:20:15;;;;;;;28.10;12.67;;;11.00;99.90;;;;;;4142052;28;20552;-56
2022/04/08 05:22:17;;;;;;;19.67;11.83;;;10.90;99.90;;;;;;4141202;28;20037;-56
2022/04/08 05:24:19;;;;;;;26.93;13.00;;;11.10;99.90;;;;;;4148932;28;20054;-60
2022/04/08 05:26:20;;;;;;;23.87;12.97;;;11.30;99.90;;;;;;4158248;28;20487;-58
2022/04/08 05:28:21;;;;;;;24.83;12.03;;;11.40;99.90;;;;;;4156782;28;20075;-58
2022/04/08 05:30:22;;;;;;;19.30;11.70;;;11.50;99.90;;;;;;4158512;28;20037;-59
2022/04/08 05:32:24;;;;;;;20.67;12.30;;;11.50;99.90;;;;;;4154307;28;20494;-51
2022/04/08 05:34:27;;;;;;;22.23;12.33;;;11.30;99.90;;;;;;4158020;28;20050;-54
2022/04/08 05:36:28;;;;;;;23.67;12.53;;;10.90;99.90;;;;;;4156815;28;20041;-56
2022/04/08 05:38:29;;;;;;;23.00;12.50;;;11.00;99.90;;;;;;4157576;28;20041;-56
2022/04/08 05:40:30;;;;;;;32.60;17.67;;;11.20;99.90;;;;;;4156052;28;20807;-56
2022/04/08 05:42:33;;;;;;;25.77;14.13;;;11.40;99.90;;;;;;4157454;28;20103;-57
2022/04/08 05:44:34;;;;;;;27.47;14.67;;;11.00;99.90;;;;;;4157159;28;20029;-53
2022/04/08 05:46:35;;;;;;;29.27;14.80;;;11.20;99.90;;;;;;4157198;28;20422;-53
2022/04/08 05:48:37;;;;;;;21.17;12.30;;;11.50;99.90;;;;;;4157968;28;20037;-58
2022/04/08 05:50:38;;;;;;;20.10;11.93;;;11.50;99.90;;;;;;4157180;28;20041;-55
2022/04/08 05:52:39;;;;;;;20.23;12.17;;;11.10;99.90;;;;;;4158329;28;20041;-56
2022/04/08 05:54:40;;;;;;;21.57;13.47;;;10.90;99.90;;;;;;4156737;28;20041;-56
2022/04/08 05:56:41;;;;;;;18.57;11.97;;;10.90;99.90;;;;;;4158609;28;20030;-59
2022/04/08 05:58:42;;;;;;;18.83;12.03;;;10.70;99.90;;;;;;4156945;28;20091;-60
2022/04/08 06:00:44;;;;;;;19.03;11.67;;;11.10;99.90;;;;;;4158055;28;20042;-56
2022/04/08 06:02:45;;;;;;;17.47;11.03;;;11.50;99.90;;;;;;4155992;28;20481;-57
2022/04/08 06:04:46;;;;;;;19.33;12.50;;;12.10;99.90;;;;;;4158070;28;20060;-57
2022/04/08 06:06:48;;;;;;;19.17;10.83;;;12.30;99.90;;;;;;4156831;28;20597;-57
2022/04/08 06:08:49;;;;;;;18.07;10.33;;;12.30;99.90;;;;;;4157824;28;20041;-54
2022/04/08 06:10:51;;;;;;;18.83;10.50;;;12.40;99.90;;;;;;4157212;28;20043;-57
2022/04/08 06:12:53;;;;;;;19.43;11.60;;;12.80;99.90;;;;;;4157226;28;20092;-59
2022/04/08 06:14:54;;;;;;;22.77;11.37;;;12.70;99.90;;;;;;4157133;28;20049;-56
2022/04/08 06:16:55;;;;;;;20.90;10.27;;;12.40;99.90;;;;;;4157127;28;20384;-54
2022/04/08 06:18:57;;;;;;;24.70;11.77;;;12.20;99.90;;;;;;4157754;28;20083;-56
2022/04/08 06:20:58;;;;;;;19.47;10.33;;;12.30;99.90;;;;;;4156146;28;20080;-57
2022/04/08 06:22:59;;;;;;;18.67;10.53;;;12.60;99.90;;;;;;4158080;28;20025;-57
2022/04/08 06:25:00;;;;;;;16.77;9.30;;;13.40;99.90;;;;;;4156532;28;20469;-57
2022/04/08 06:27:01;;;;;;;20.27;8.70;;;13.90;99.90;;;;;;4157831;28;20483;-57
2022/04/08 06:29:04;;;;;;;15.47;9.07;;;14.30;99.90;;;;;;4156223;28;20691;-60
2022/04/08 06:31:05;;;;;;;19.40;9.37;;;14.70;99.90;;;;;;4157277;28;20123;-57
2022/04/08 06:33:08;;;;;;;17.27;9.27;;;15.00;99.90;;;;;;4156526;28;20033;-60
2022/04/08 06:35:09;;;;;;;15.93;9.00;;;15.10;99.90;;;;;;4157261;28;20053;-56
2022/04/08 06:37:10;;;;;;;17.40;9.20;;;15.00;99.90;;;;;;4156319;28;20445;-57
2022/04/08 06:39:11;;;;;;;15.77;9.33;;;15.10;99.90;;;;;;4157454;28;20037;-61
2022/04/08 06:41:12;;;;;;;21.27;10.00;;;15.20;99.90;;;;;;4156130;28;20037;-59
2022/04/08 06:43:13;;;;;;;12.87;8.03;;;15.30;99.90;;;;;;4156750;28;20151;-60
2022/04/08 06:45:14;;;;;;;15.33;9.23;;;15.20;99.90;;;;;;4156675;28;20079;-59
2022/04/08 06:47:15;;;;;;;19.03;9.63;;;15.10;99.90;;;;;;4156450;28;20562;-60
2022/04/08 06:49:19;;;;;;;16.80;9.10;;;14.80;99.90;;;;;;4157500;28;20252;-56
2022/04/08 06:51:20;;;;;;;14.97;9.13;;;14.50;99.90;;;;;;4155954;28;21064;-59
2022/04/08 06:53:21;;;;;;;19.60;9.90;;;14.30;99.90;;;;;;4157223;28;20476;-58
2022/04/08 06:55:24;;;;;;;19.17;10.43;;;14.00;99.90;;;;;;4155838;28;20045;-58
2022/04/08 06:57:25;;;;;;;18.87;10.43;;;13.90;99.90;;;;;;4172123;28;20045;-58
2022/04/08 06:59:26;;;;;;;20.90;10.13;;;13.50;99.90;;;;;;4155588;28;20452;-58
2022/04/08 07:01:27;;;;;;;20.47;9.97;;;13.20;99.90;;;;;;4157226;28;20025;-59
2022/04/08 07:03:28;;;;;;;17.53;10.57;;;13.30;99.90;;;;;;4155619;28;20506;-60
2022/04/08 07:05:29;;;;;;;22.37;11.60;;;13.40;99.90;;;;;;4157174;28;20041;-56
2022/04/08 07:07:38;;;;;;;17.20;9.93;;;13.50;99.90;;;;;;4155600;28;20087;-57
2022/04/08 07:09:39;;;;;;;20.80;10.07;;;13.80;99.90;;;;;;4156884;28;20099;-60
2022/04/08 07:11:40;;;;;;;15.63;10.07;;;13.90;99.90;;;;;;4156072;28;20552;-60
2022/04/08 07:13:41;;;;;;;17.50;10.07;;;13.90;99.90;;;;;;4156321;28;20045;-57
2022/04/08 07:15:42;;;;;;;17.77;9.57;;;13.90;99.90;;;;;;4156569;28;20068;-55
2022/04/08 07:17:44;;;;;;;18.30;10.70;;;13.80;99.90;;;;;;4156509;28;20111;-61
2022/04/08 07:19:45;;;;;;;16.73;10.20;;;14.00;99.90;;;;;;4156453;28;20072;-58
2022/04/08 07:21:46;;;;;;;15.80;9.50;;;13.90;99.90;;;;;;4155646;28;20539;-60
2022/04/08 07:23:47;;;;;;;22.07;10.30;;;14.10;99.90;;;;;;4157099;28;20057;-55
2022/04/08 07:25:48;;;;;;;18.50;10.13;;;14.60;99.90;;;;;;4155522;28;20103;-56
2022/04/08 07:27:52;;;;;;;16.70;9.83;;;14.80;99.90;;;;;;4157032;28;20642;-56
2022/04/08 07:29:53;;;;;;;19.63;9.83;;;15.10;99.90;;;;;;4156091;28;20393;-60
2022/04/08 07:31:54;;;;;;;17.57;10.03;;;15.30;99.90;;;;;;4157117;28;20485;-59
2022/04/08 07:33:55;;;;;;;21.03;10.73;;;15.60;99.90;;;;;;4155795;28;20049;-57
2022/04/08 07:35:58;;;;;;;21.77;10.07;;;16.00;99.90;;;;;;4156773;28;20068;-57
2022/04/08 07:38:00;;;;;;;22.17;10.17;;;16.00;99.90;;;;;;4155487;28;20099;-58
2022/04/08 07:40:08;;;;;;;13.50;8.87;;;15.70;99.90;;;;;;4156687;28;20104;-57
2022/04/08 07:42:10;;;;;;;13.77;8.85;;;15.60;99.90;;;;;;4155346;28;20182;-55
2022/04/08 07:44:11;;;;;;;19.83;10.00;;;15.60;99.90;;;;;;4156501;28;20042;-59
2022/04/08 07:46:12;;;;;;;19.60;10.13;;;15.20;99.90;;;;;;4155670;28;20519;-56
2022/04/08 07:48:14;;;;;;;13.77;9.37;;;14.70;99.90;;;;;;4155697;28;20440;-57
2022/04/08 07:50:15;;;;;;;23.87;10.93;;;14.40;99.90;;;;;;4156640;28;20057;-57
2022/04/08 07:52:16;;;;;;;26.70;10.37;;;14.10;99.90;;;;;;4155755;28;20068;-56
2022/04/08 07:54:17;;;;;;;27.10;11.80;;;14.00;99.90;;;;;;4156780;28;20779;-55
2022/04/08 07:56:18;;;;;;;20.17;10.60;;;13.80;99.90;;;;;;4155380;28;20038;-60
2022/04/08 07:58:19;;;;;;;20.43;11.77;;;13.70;99.90;;;;;;4156813;28;20099;-58
2022/04/08 08:00:25;;;;;;;31.83;14.67;;;13.60;99.90;;;;;;4155895;28;20037;-57
2022/04/08 08:02:29;;;;;;;27.80;14.40;;;13.40;99.90;;;;;;4157146;28;20033;-58
2022/04/08 08:04:30;;;;;;;32.30;13.87;;;13.30;99.90;;;;;;4157934;28;20509;-56
2022/04/08 08:06:31;;;;;;;26.53;13.63;;;13.30;99.90;;;;;;4159989;28;20045;-56
2022/04/08 08:08:32;;;;;;;22.47;12.30;;;13.20;99.90;;;;;;4158500;28;20975;-60
2022/04/08 08:10:39;;;;;;;29.10;11.53;;;13.20;99.90;;;;;;4159633;28;20034;-61
2022/04/08 08:12:40;;;;;;;25.03;14.63;;;13.20;99.90;;;;;;4158623;28;20444;-60
2022/04/08 08:14:41;;;;;;;19.40;10.83;;;13.40;99.90;;;;;;4159309;28;20099;-56
2022/04/08 08:16:42;;;;;;;20.47;10.53;;;13.50;99.90;;;;;;4158377;28;20042;-60
2022/04/08 08:18:43;;;;;;;15.33;10.60;;;13.70;99.90;;;;;;4158730;28;20042;-56
2022/04/08 08:20:44;;;;;;;17.63;10.77;;;13.80;99.90;;;;;;4159169;28;20099;-56
2022/04/08 08:22:46;;;;;;;10.73;5.93;;;14.00;99.90;;;;;;4158656;28;20481;-55
2022/04/08 08:24:48;;;;;;;13.20;5.13;;;14.00;99.90;;;;;;4158731;28;20037;-57
2022/04/08 08:26:49;;;;;;;7.37;4.73;;;14.10;99.90;;;;;;4157723;28;20045;-55
2022/04/08 08:28:50;;;;;;;5.23;4.00;;;14.10;99.90;;;;;;4158527;28;20080;-58
2022/04/08 08:30:51;;;;;;;9.10;3.97;;;14.20;99.90;;;;;;4157584;28;20103;-53
2022/04/08 08:32:52;;;;;;;12.17;4.30;;;14.20;99.90;;;;;;4159491;28;20942;-57
2022/04/08 08:34:53;;;;;;;7.60;3.87;;;14.30;99.90;;;;;;4157880;28;20033;-56
2022/04/08 08:36:59;;;;;;;5.00;3.70;;;14.40;99.90;;;;;;4159728;28;20038;-56
2022/04/08 08:39:01;;;;;;;5.17;3.63;;;14.40;99.90;;;;;;4157416;28;20096;-59
2022/04/08 08:41:03;;;;;;;4.97;3.90;;;14.40;99.90;;;;;;4158562;28;20091;-60
2022/04/08 08:43:04;;;;;;;5.53;3.40;;;14.50;99.90;;;;;;4157550;28;20412;-61
2022/04/08 08:45:07;;;;;;;4.50;3.23;;;14.40;99.90;;;;;;4159040;28;20051;-57
2022/04/08 08:47:16;;;;;;;8.17;3.40;;;14.40;99.90;;;;;;4157496;28;20099;-56
2022/04/08 08:49:19;;;;;;;11.23;3.73;;;14.50;99.90;;;;;;4159319;28;20049;-57
2022/04/08 08:51:21;;;;;;;5.10;3.27;;;14.60;99.90;;;;;;4157644;28;20029;-57
2022/04/08 08:53:23;;;;;;;6.83;3.33;;;14.60;99.90;;;;;;4158367;28;20033;-59
2022/04/08 08:55:25;;;;;;;9.20;2.53;;;14.70;99.90;;;;;;4157672;28;20041;-57
2022/04/08 08:57:26;;;;;;;7.53;2.57;;;14.80;99.50;;;;;;4158069;28;20405;-57
2022/04/08 08:59:28;;;;;;;13.53;3.03;;;14.80;99.30;;;;;;4157726;28;20061;-57
2022/04/08 09:01:30;;;;;;;4.47;3.07;;;14.90;99.30;;;;;;4157718;28;20522;-56
2022/04/08 09:03:31;;;;;;;6.33;3.20;;;14.90;98.80;;;;;;4158129;28;20054;-56
2022/04/08 09:05:40;;;;;;;4.40;2.60;;;15.00;98.70;;;;;;4157633;28;20092;-60
2022/04/08 09:07:42;;;;;;;6.83;2.27;;;15.10;98.50;;;;;;4158537;28;20049;-59
2022/04/08 09:09:52;;;;;;;8.30;2.93;;;15.20;98.70;;;;;;4157267;28;20099;-58
2022/04/08 09:11:53;;;;;;;3.38;2.40;;;15.20;98.30;;;;;;4173326;28;20090;-58
2022/04/08 09:14:02;;;;;;;9.97;2.60;;;15.20;98.40;;;;;;4157070;28;20789;-57
2022/04/08 09:16:03;;;;;;;7.57;2.50;;;15.30;97.60;;;;;;4158564;28;20022;-58
2022/04/08 09:18:08;;;;;;;7.07;2.00;;;15.30;97.80;;;;;;4157137;28;20103;-57
2022/04/08 09:20:11;;;;;;;1.43;1.33;;;15.20;96.70;;;;;;4159431;28;20037;-56
2022/04/08 09:22:13;;;;;;;7.27;1.70;;;15.00;97.10;;;;;;4156794;28;20111;-58
2022/04/08 09:24:14;;;;;;;4.67;2.20;;;15.00;97.20;;;;;;4158103;28;20033;-60
2022/04/08 09:26:15;;;;;;;4.93;1.63;;;15.00;97.10;;;;;;4156948;28;20045;-57
2022/04/08 09:28:18;;;;;;;5.03;1.77;;;15.00;97.00;;;;;;4157964;28;20045;-57
2022/04/08 09:30:20;;;;;;;3.97;1.73;;;15.00;96.80;;;;;;4156653;28;20128;-57
2022/04/08 09:32:22;;;;;;;5.40;1.70;;;15.00;96.50;;;;;;4156370;28;20045;-58
2022/04/08 09:34:23;;;;;;;12.20;2.10;;;14.90;96.50;;;;;;4157053;28;20458;-56
2022/04/08 09:36:31;;;;;;;4.37;2.00;;;14.90;96.40;;;;;;4157508;28;20049;-56
2022/04/08 09:38:34;;;;;;;3.38;1.42;;;14.90;96.10;;;;;;4157362;28;20079;-60
2022/04/08 09:40:40;;;;;;;2.33;1.40;;;14.90;95.90;;;;;;4157006;28;20045;-55
2022/04/08 09:42:43;;;;;;;3.80;1.50;;;14.80;95.50;;;;;;4157382;28;20511;-57
2022/04/08 09:44:44;;;;;;;2.87;1.50;;;14.80;95.60;;;;;;4156994;28;20041;-58
2022/04/08 09:46:45;;;;;;;9.37;2.13;;;14.70;95.40;;;;;;4157893;28;20139;-59
2022/04/08 09:48:47;;;;;;;4.10;1.30;;;14.70;95.20;;;;;;4156924;28;20535;-59
2022/04/08 09:50:51;;;;;;;3.30;1.57;;;14.70;95.10;;;;;;4158982;28;20099;-58
2022/04/08 09:52:53;;;;;;;2.93;1.70;;;14.70;95.00;;;;;;4156593;28;20013;-59
2022/04/08 09:54:58;;;;;;;1.87;1.27;;;14.70;94.80;;;;;;4157913;28;20029;-57
2022/04/08 09:57:00;;;;;;;4.17;1.60;;;14.70;94.40;;;;;;4156670;28;20092;-56
2022/04/08 09:59:14;;;;;;;2.97;1.63;;;14.80;94.30;;;;;;4157898;28;20033;-61
2022/04/08 10:01:16;;;;;;;2.87;1.30;;;14.90;94.10;;;;;;4155878;28;20095;-59
2022/04/08 10:03:18;;;;;;;4.50;1.57;;;15.00;93.80;;;;;;4156850;28;20826;-55
2022/04/08 10:05:20;;;;;;;2.70;1.30;;;15.10;93.70;;;;;;4156086;28;20037;-56
2022/04/08 10:07:22;;;;;;;2.20;1.70;;;15.10;93.40;;;;;;4157407;28;20057;-57
2022/04/08 10:09:26;;;;;;;3.70;1.60;;;15.10;93.00;;;;;;4156760;28;20172;-60
2022/04/08 10:11:45;;;;;;;2.43;1.60;;;15.10;93.10;;;;;;4157692;28;20041;-56
2022/04/08 10:13:46;;;;;;;5.22;1.50;;;15.10;92.70;;;;;;4156468;28;20045;-58
2022/04/08 10:16:09;;;;;;;4.53;1.73;;;15.10;93.20;;;;;;4157571;28;20111;-58
2022/04/08 10:18:11;;;;;;;4.80;1.70;;;15.20;92.50;;;;;;4156540;28;20088;-63
2022/04/08 10:20:19;;;;;;;4.47;2.13;;;15.20;93.00;;;;;;4157955;28;20087;-57
2022/04/08 10:22:21;;;;;;;2.27;1.43;;;15.20;92.90;;;;;;4155794;28;20099;-57
2022/04/08 10:24:24;;;;;;;5.30;1.50;;;15.10;92.80;;;;;;4157092;28;20038;-58
2022/04/08 10:26:26;;;;;;;1.93;1.40;;;15.20;92.90;;;;;;4155138;28;20497;-56
2022/04/08 10:28:38;;;;;;;3.67;1.58;;;15.50;93.00;;;;;;4156753;28;20037;-57